createdAt,value
2019-03-27T00:01:12.881Z,102306.72
2019-03-27T00:03:40.376Z,102299.78
2019-03-27T00:06:07.917Z,102305.36
2019-03-27T00:08:35.382Z,102314.87
2019-03-27T00:11:03.015Z,102311.84
2019-03-27T00:13:30.493Z,102310.09
2019-03-27T00:15:57.947Z,102290.61
2019-03-27T00:18:25.409Z,102304.67
2019-03-27T00:20:52.899Z,102299.47
2019-03-27T00:23:20.433Z,102305.42
2019-03-27T00:25:47.929Z,102299.34
2019-03-27T00:28:15.458Z,102292.36
2019-03-27T00:30:42.972Z,102295.34
2019-03-27T00:33:10.474Z,102290.70
2019-03-27T00:35:37.969Z,102296.74
2019-03-27T00:38:05.478Z,102297.94
2019-03-27T00:40:32.974Z,102304.05
2019-03-27T00:43:00.477Z,102304.48
2019-03-27T00:45:27.964Z,102306.28
2019-03-27T00:47:56.069Z,102307.09
2019-03-27T00:50:23.565Z,102307.07
2019-03-27T00:52:51.073Z,102308.75
2019-03-27T00:55:18.570Z,102308.81
2019-03-27T00:57:46.061Z,102309.24
2019-03-27T01:00:22.823Z,102311.47
2019-03-27T01:02:50.329Z,102305.47
2019-03-27T01:05:17.805Z,102306.44
2019-03-27T01:07:45.342Z,102305.05
2019-03-27T01:10:13.172Z,102305.41
2019-03-27T01:12:40.717Z,102307.22
2019-03-27T01:15:08.418Z,102305.61
2019-03-27T01:17:36.014Z,102284.00
2019-03-27T01:20:03.807Z,102305.83
2019-03-27T01:22:31.328Z,102303.62
2019-03-27T01:24:58.814Z,102300.11
2019-03-27T01:27:26.332Z,102300.09
2019-03-27T01:29:53.835Z,102296.27
2019-03-27T01:32:21.359Z,102290.97
2019-03-27T01:34:48.830Z,102285.77
2019-03-27T01:37:16.352Z,102286.57
2019-03-27T01:39:43.849Z,102289.50
2019-03-27T01:42:11.370Z,102287.23
2019-03-27T01:44:38.834Z,102284.83
2019-03-27T01:47:06.456Z,102291.23
2019-03-27T01:49:33.943Z,102289.17
2019-03-27T01:52:02.071Z,102291.55
2019-03-27T01:54:29.594Z,102297.50
2019-03-27T01:56:57.109Z,102295.02
2019-03-27T01:59:24.593Z,102300.09
2019-03-27T02:01:52.107Z,102301.09
2019-03-27T02:04:19.630Z,102301.02
2019-03-27T02:06:47.138Z,102298.85
2019-03-27T02:09:14.637Z,102298.41
2019-03-27T02:11:42.106Z,102293.27
2019-03-27T02:14:09.630Z,102297.30
2019-03-27T02:16:37.150Z,102294.97
2019-03-27T02:19:04.674Z,102304.61
2019-03-27T02:21:32.168Z,102299.71
2019-03-27T02:23:59.675Z,102301.81
2019-03-27T02:26:27.161Z,102295.45
2019-03-27T02:28:54.670Z,102294.20
2019-03-27T02:31:22.132Z,102300.11
2019-03-27T02:33:49.620Z,102298.42
2019-03-27T02:36:17.103Z,102297.87
2019-03-27T02:38:44.665Z,102298.72
2019-03-27T02:41:12.149Z,102294.45
2019-03-27T02:43:39.653Z,102303.48
2019-03-27T02:46:23.314Z,102301.77
2019-03-27T02:48:36.562Z,102296.02
2019-03-27T02:51:04.036Z,102292.62
2019-03-27T02:53:31.562Z,102288.59
2019-03-27T02:55:59.068Z,102290.61
2019-03-27T02:58:26.575Z,102287.95
2019-03-27T03:00:54.043Z,102293.16
2019-03-27T03:03:21.541Z,102289.00
2019-03-27T03:05:49.045Z,102296.83
2019-03-27T03:08:16.582Z,102296.62
2019-03-27T03:10:45.864Z,102301.14
2019-03-27T03:13:14.129Z,102295.57
2019-03-27T03:15:41.615Z,102295.45
2019-03-27T03:18:09.116Z,102301.50
2019-03-27T03:20:36.590Z,102300.14
2019-03-27T03:23:04.065Z,102307.58
2019-03-27T03:25:31.510Z,102312.99
2019-03-27T03:27:59.002Z,102315.88
2019-03-27T03:30:26.484Z,102312.67
2019-03-27T03:32:53.944Z,102312.42
2019-03-27T03:35:21.417Z,102310.55
2019-03-27T03:37:48.857Z,102311.13
2019-03-27T03:40:17.717Z,102317.33
2019-03-27T03:42:45.170Z,102320.91
2019-03-27T03:45:12.740Z,102324.36
2019-03-27T03:47:40.229Z,102326.61
2019-03-27T03:50:14.262Z,102327.42
2019-03-27T03:52:45.627Z,102334.33
2019-03-27T03:55:11.275Z,102339.17
2019-03-27T03:57:38.743Z,102336.05
2019-03-27T04:00:06.954Z,102340.39
2019-03-27T04:02:36.336Z,102335.26
2019-03-27T04:05:04.471Z,102340.02
2019-03-27T04:07:31.924Z,102332.85
2019-03-27T04:09:59.416Z,102338.23
2019-03-27T04:12:26.883Z,102337.23
2019-03-27T04:14:54.383Z,102341.48
2019-03-27T04:17:21.846Z,102342.49
2019-03-27T04:19:49.347Z,102341.48
2019-03-27T04:22:16.788Z,102343.84
2019-03-27T04:24:44.260Z,102343.17
2019-03-27T04:27:11.712Z,102334.33
2019-03-27T04:29:39.273Z,102338.94
2019-03-27T04:32:06.732Z,102337.94
2019-03-27T04:34:34.210Z,102338.83
2019-03-27T04:37:01.677Z,102338.41
2019-03-27T04:39:29.274Z,102341.95
2019-03-27T04:41:56.789Z,102348.52
2019-03-27T04:44:24.286Z,102351.34
2019-03-27T04:46:51.732Z,102351.22
2019-03-27T04:49:19.210Z,102351.34
2019-03-27T04:51:46.680Z,102349.73
2019-03-27T04:54:14.197Z,102351.80
2019-03-27T04:56:41.655Z,102349.73
2019-03-27T04:59:09.141Z,102358.70
2019-03-27T05:01:36.587Z,102360.66
2019-03-27T05:04:05.773Z,102358.99
2019-03-27T05:06:33.248Z,102355.11
2019-03-27T05:09:00.756Z,102352.80
2019-03-27T05:11:28.214Z,102343.55
2019-03-27T05:13:55.695Z,102353.09
2019-03-27T05:16:23.176Z,102345.70
2019-03-27T05:18:50.652Z,102354.50
2019-03-27T05:21:18.096Z,102359.58
2019-03-27T05:23:45.563Z,102358.70
2019-03-27T05:26:13.055Z,102371.19
2019-03-27T05:28:40.541Z,102375.73
2019-03-27T05:31:08.030Z,102382.09
2019-03-27T05:33:35.482Z,102382.87
2019-03-27T05:36:02.964Z,102380.70
2019-03-27T05:38:30.412Z,102388.16
2019-03-27T05:40:57.917Z,102391.75
2019-03-27T05:43:25.364Z,102393.89
2019-03-27T05:45:52.857Z,102392.53
2019-03-27T05:48:20.315Z,102397.23
2019-03-27T05:50:47.806Z,102403.27
2019-03-27T05:53:15.265Z,102403.94
2019-03-27T05:55:42.822Z,102403.42
2019-03-27T05:58:10.298Z,102396.34
2019-03-27T06:00:37.782Z,102398.52
2019-03-27T06:03:05.239Z,102403.80
2019-03-27T06:05:32.727Z,102402.19
2019-03-27T06:08:00.171Z,102413.41
2019-03-27T06:10:27.664Z,102412.66
2019-03-27T06:12:55.148Z,102414.75
2019-03-27T06:15:22.654Z,102418.66
2019-03-27T06:17:50.119Z,102419.97
2019-03-27T06:20:17.606Z,102426.70
2019-03-27T06:22:45.048Z,102423.62
2019-03-27T06:25:12.544Z,102426.28
2019-03-27T06:27:40.037Z,102425.80
2019-03-27T06:30:07.781Z,102424.66
2019-03-27T06:32:35.829Z,102425.44
2019-03-27T06:35:03.902Z,102430.05
2019-03-27T06:37:31.360Z,102432.08
2019-03-27T06:39:58.838Z,102427.08
2019-03-27T06:42:26.285Z,102431.72
2019-03-27T06:44:53.822Z,102436.62
2019-03-27T06:47:21.283Z,102432.46
2019-03-27T06:49:48.766Z,102430.67
2019-03-27T06:52:16.208Z,102429.22
2019-03-27T06:54:43.694Z,102426.05
2019-03-27T06:57:11.195Z,102427.48
2019-03-27T06:59:38.745Z,102429.67
2019-03-27T07:02:06.213Z,102436.89
2019-03-27T07:04:33.991Z,102430.89
2019-03-27T07:07:01.499Z,102428.34
2019-03-27T07:09:29.004Z,102427.28
2019-03-27T07:11:56.500Z,102423.14
2019-03-27T07:14:23.964Z,102425.30
2019-03-27T07:16:51.461Z,102421.41
2019-03-27T07:19:18.930Z,102433.06
2019-03-27T07:21:46.430Z,102435.72
2019-03-27T07:24:13.882Z,102435.53
2019-03-27T07:26:41.368Z,102425.81
2019-03-27T07:29:08.832Z,102433.17
2019-03-27T07:31:36.318Z,102431.27
2019-03-27T07:34:03.877Z,102426.79
2019-03-27T07:36:31.405Z,102431.20
2019-03-27T07:39:10.399Z,102432.61
2019-03-27T07:41:28.231Z,102439.42
2019-03-27T07:43:55.658Z,102439.63
2019-03-27T07:46:23.157Z,102452.66
2019-03-27T07:48:54.203Z,102451.50
2019-03-27T07:51:20.024Z,102449.08
2019-03-27T07:53:47.537Z,102451.27
2019-03-27T07:56:15.028Z,102465.85
2019-03-27T07:58:42.502Z,102467.61
2019-03-27T08:01:10.209Z,102473.42
2019-03-27T08:03:37.680Z,102481.59
2019-03-27T08:06:05.365Z,102484.88
2019-03-27T08:08:32.822Z,102484.18
2019-03-27T08:11:00.319Z,102492.61
2019-03-27T08:13:27.781Z,102485.94
2019-03-27T08:15:55.268Z,102491.75
2019-03-27T08:18:22.767Z,102491.31
2019-03-27T08:20:50.242Z,102491.23
2019-03-27T08:23:17.713Z,102491.46
2019-03-27T08:25:45.201Z,102486.91
2019-03-27T08:28:12.660Z,102486.19
2019-03-27T08:30:40.122Z,102487.77
2019-03-27T08:33:07.616Z,102489.70
2019-03-27T08:35:35.093Z,102489.28
2019-03-27T08:38:02.562Z,102493.19
2019-03-27T08:40:30.058Z,102490.24
2019-03-27T08:42:57.507Z,102484.74
2019-03-27T08:45:25.019Z,102494.69
2019-03-27T08:47:52.628Z,102495.98
2019-03-27T08:50:20.096Z,102502.30
2019-03-27T08:52:47.645Z,102499.03
2019-03-27T08:55:16.215Z,102495.22
2019-03-27T08:57:43.695Z,102493.45
2019-03-27T09:00:12.145Z,102496.11
2019-03-27T09:02:39.666Z,102500.58
2019-03-27T09:05:08.527Z,102501.11
2019-03-27T09:07:36.024Z,102501.50
2019-03-27T09:10:04.091Z,102501.74
2019-03-27T09:12:31.581Z,102507.59
2019-03-27T09:14:59.022Z,102511.20
2019-03-27T09:17:26.548Z,102516.50
2019-03-27T09:19:54.042Z,102504.02
2019-03-27T09:22:21.551Z,102505.45
2019-03-27T09:24:48.988Z,102505.09
2019-03-27T09:27:16.489Z,102508.47
2019-03-27T09:29:43.976Z,102503.12
2019-03-27T09:32:11.439Z,102497.03
2019-03-27T09:34:38.909Z,102508.30
2019-03-27T09:37:06.394Z,102508.63
2019-03-27T09:39:33.881Z,102507.56
2019-03-27T09:42:02.720Z,102508.38
2019-03-27T09:44:30.205Z,102514.12
2019-03-27T09:46:57.688Z,102512.48
2019-03-27T09:49:25.154Z,102510.67
2019-03-27T09:51:52.718Z,102512.63
2019-03-27T09:54:20.203Z,102507.56
2019-03-27T09:56:47.700Z,102507.89
2019-03-27T09:59:15.190Z,102516.44
2019-03-27T10:01:42.691Z,102516.34
2019-03-27T10:04:10.136Z,102518.91
2019-03-27T10:06:37.624Z,102520.38
2019-03-27T10:09:06.608Z,102513.89
2019-03-27T10:11:34.100Z,102523.84
2019-03-27T10:14:01.572Z,102522.92
2019-03-27T10:16:29.490Z,102515.65
2019-03-27T10:18:56.932Z,102516.71
2019-03-27T10:21:24.373Z,102520.58
2019-03-27T10:23:51.848Z,102525.94
2019-03-27T10:26:19.323Z,102525.95
2019-03-27T10:28:46.802Z,102518.89
2019-03-27T10:31:15.111Z,102523.25
2019-03-27T10:33:42.739Z,102523.73
2019-03-27T10:36:10.237Z,102518.95
2019-03-27T10:38:37.713Z,102519.06
2019-03-27T10:41:05.174Z,102520.02
2019-03-27T10:43:32.674Z,102519.09
2019-03-27T10:46:00.136Z,102520.45
2019-03-27T10:48:27.607Z,102518.30
2019-03-27T10:50:55.082Z,102519.59
2019-03-27T10:53:22.562Z,102516.52
2019-03-27T10:55:50.019Z,102517.85
2019-03-27T10:58:17.511Z,102512.62
2019-03-27T11:00:44.966Z,102519.59
2019-03-27T11:03:12.471Z,102510.38
2019-03-27T11:05:39.943Z,102513.91
2019-03-27T11:08:07.452Z,102515.67
2019-03-27T11:10:34.966Z,102510.35
2019-03-27T11:13:04.561Z,102517.34
2019-03-27T11:15:32.133Z,102522.63
2019-03-27T11:17:59.667Z,102525.20
2019-03-27T11:20:31.401Z,102514.73
2019-03-27T11:22:56.561Z,102524.19
2019-03-27T11:25:24.112Z,102517.80
2019-03-27T11:27:51.619Z,102514.78
2019-03-27T11:30:24.272Z,102513.50
2019-03-27T11:32:51.756Z,102516.55
2019-03-27T11:35:19.213Z,102513.86
2019-03-27T11:37:46.862Z,102512.89
2019-03-27T11:40:14.431Z,102508.00
2019-03-27T11:42:41.929Z,102510.34
2019-03-27T11:45:09.618Z,102502.51
2019-03-27T11:47:37.108Z,102512.59
2019-03-27T11:50:06.587Z,102506.90
2019-03-27T11:52:34.032Z,102501.62
2019-03-27T11:55:02.304Z,102495.22
2019-03-27T11:57:29.969Z,102503.28
2019-03-27T11:59:57.445Z,102506.25
2019-03-27T12:02:24.973Z,102502.47
2019-03-27T12:04:52.473Z,102505.13
2019-03-27T12:07:19.937Z,102502.08
2019-03-27T12:09:47.402Z,102504.27
2019-03-27T12:12:14.856Z,102505.19
2019-03-27T12:14:42.355Z,102504.68
2019-03-27T12:17:09.834Z,102503.78
2019-03-27T12:19:37.977Z,102498.09
2019-03-27T12:22:05.584Z,102497.59
2019-03-27T12:24:33.039Z,102498.14
2019-03-27T12:27:00.600Z,102499.06
2019-03-27T12:29:28.233Z,102495.56
2019-03-27T12:31:55.676Z,102498.19
2019-03-27T12:34:23.181Z,102489.81
2019-03-27T12:36:50.627Z,102488.55
2019-03-27T12:39:18.374Z,102481.97
2019-03-27T12:41:45.863Z,102487.19
2019-03-27T12:44:13.347Z,102478.86
2019-03-27T12:46:40.802Z,102474.41
2019-03-27T12:49:08.280Z,102465.48
2019-03-27T12:51:35.719Z,102468.55
2019-03-27T12:54:03.687Z,102468.94
2019-03-27T12:56:31.140Z,102472.45
2019-03-27T12:58:58.624Z,102479.20
2019-03-27T13:01:26.060Z,102474.41
2019-03-27T13:03:53.543Z,102480.06
2019-03-27T13:06:20.992Z,102475.85
2019-03-27T13:08:49.635Z,102475.55
2019-03-27T13:11:17.192Z,102421.15
2019-03-27T13:13:44.731Z,102478.00
2019-03-27T13:16:12.242Z,102478.36
2019-03-27T13:18:39.719Z,102481.14
2019-03-27T13:21:07.168Z,102480.38
2019-03-27T13:23:34.631Z,102490.11
2019-03-27T13:26:02.099Z,102487.74
2019-03-27T13:28:29.548Z,102488.00
2019-03-27T13:30:57.036Z,102494.71
2019-03-27T13:33:24.495Z,102489.99
2019-03-27T13:35:51.991Z,102496.86
2019-03-27T13:38:19.435Z,102497.71
2019-03-27T13:40:46.907Z,102500.45
2019-03-27T13:43:14.352Z,102498.72
2019-03-27T13:45:41.842Z,102499.83
2019-03-27T13:48:09.334Z,102505.59
2019-03-27T13:50:36.872Z,102500.72
2019-03-27T13:53:04.523Z,102492.85
2019-03-27T13:55:34.927Z,102487.17
2019-03-27T13:58:01.619Z,102480.09
2019-03-27T14:00:29.200Z,102481.37
2019-03-27T14:02:56.868Z,102477.04
2019-03-27T14:05:24.352Z,102469.84
2019-03-27T14:07:52.021Z,102475.68
2019-03-27T14:10:19.979Z,102471.74
2019-03-27T14:12:47.474Z,102475.26
2019-03-27T14:15:15.976Z,102473.48
2019-03-27T14:17:43.631Z,102470.43
2019-03-27T14:20:11.563Z,102471.66
2019-03-27T14:22:39.037Z,102466.00
2019-03-27T14:25:08.129Z,102467.61
2019-03-27T14:27:35.578Z,102463.41
2019-03-27T14:30:04.704Z,102465.97
2019-03-27T14:32:32.174Z,102475.17
2019-03-27T14:34:59.709Z,102476.14
2019-03-27T14:37:27.252Z,102472.59
2019-03-27T14:39:54.771Z,102463.38
2019-03-27T14:42:22.209Z,102468.61
2019-03-27T14:44:49.860Z,102469.03
2019-03-27T14:47:17.316Z,102471.23
2019-03-27T14:49:45.008Z,102476.99
2019-03-27T14:52:12.743Z,102467.78
2019-03-27T14:54:40.461Z,102457.77
2019-03-27T14:57:07.937Z,102463.47
2019-03-27T14:59:35.413Z,102468.27
2019-03-27T15:02:03.081Z,102477.02
2019-03-27T15:04:30.560Z,102466.84
2019-03-27T15:06:58.013Z,102470.31
2019-03-27T15:09:25.523Z,102463.36
2019-03-27T15:11:52.971Z,102466.47
2019-03-27T15:14:21.305Z,102463.38
2019-03-27T15:16:48.829Z,102462.86
2019-03-27T15:19:16.286Z,102461.16
2019-03-27T15:21:43.817Z,102464.68
2019-03-27T15:24:11.290Z,102465.56
2019-03-27T15:26:38.792Z,102466.42
2019-03-27T15:29:06.249Z,102459.38
2019-03-27T15:31:33.731Z,102458.43
2019-03-27T15:34:01.296Z,102462.09
2019-03-27T15:36:28.784Z,102456.36
2019-03-27T15:38:56.226Z,102455.09
2019-03-27T15:41:23.710Z,102451.10
2019-03-27T15:43:51.372Z,102451.70
2019-03-27T15:46:18.895Z,102449.39
2019-03-27T15:48:46.358Z,102448.95
2019-03-27T15:51:13.841Z,102448.51
2019-03-27T15:53:41.350Z,102447.18
2019-03-27T15:56:08.861Z,102457.83
2019-03-27T15:58:36.327Z,102450.27
2019-03-27T16:01:06.140Z,102452.12
2019-03-27T16:03:33.586Z,102449.12
2019-03-27T16:06:01.727Z,102451.69
2019-03-27T16:08:29.319Z,102456.58
2019-03-27T16:10:56.808Z,102450.90
2019-03-27T16:13:24.245Z,102443.87
2019-03-27T16:15:51.732Z,102453.52
2019-03-27T16:18:19.187Z,102453.94
2019-03-27T16:20:46.678Z,102447.84
2019-03-27T16:23:14.302Z,102454.00
2019-03-27T16:25:41.865Z,102443.97
2019-03-27T16:28:09.353Z,102449.20
2019-03-27T16:30:36.801Z,102447.05
2019-03-27T16:33:04.292Z,102440.91
2019-03-27T16:35:31.738Z,102442.70
2019-03-27T16:37:59.335Z,102441.83
2019-03-27T16:40:46.613Z,102450.52
2019-03-27T16:43:14.183Z,102451.42
2019-03-27T16:45:41.645Z,102455.36
2019-03-27T16:48:09.452Z,102454.54
2019-03-27T16:50:36.941Z,102451.88
2019-03-27T16:53:04.450Z,102451.87
2019-03-27T16:55:31.916Z,102450.16
2019-03-27T16:57:59.509Z,102445.34
2019-03-27T17:00:26.986Z,102451.45
2019-03-27T17:02:54.488Z,102450.60
2019-03-27T17:05:21.969Z,102449.70
2019-03-27T17:07:49.481Z,102457.16
2019-03-27T17:10:17.001Z,102457.60
2019-03-27T17:12:44.495Z,102458.03
2019-03-27T17:15:12.436Z,102464.11
2019-03-27T17:17:39.934Z,102463.70
2019-03-27T17:20:07.741Z,102457.60
2019-03-27T17:22:35.210Z,102453.24
2019-03-27T17:25:02.716Z,102453.67
2019-03-27T17:27:30.194Z,102459.80
2019-03-27T17:29:57.662Z,102458.03
2019-03-27T17:32:25.139Z,102461.95
2019-03-27T17:34:52.644Z,102458.91
2019-03-27T17:37:20.124Z,102458.91
2019-03-27T17:39:47.579Z,102462.41
2019-03-27T17:42:15.073Z,102458.50
2019-03-27T17:44:42.529Z,102463.28
2019-03-27T17:47:10.006Z,102468.10
2019-03-27T17:49:37.445Z,102468.95
2019-03-27T17:52:04.930Z,102471.14
2019-03-27T17:54:32.431Z,102479.88
2019-03-27T17:56:59.980Z,102474.64
2019-03-27T17:59:27.433Z,102480.73
2019-03-27T18:01:54.982Z,102478.58
2019-03-27T18:04:22.456Z,102479.45
2019-03-27T18:06:49.913Z,102487.30
2019-03-27T18:09:17.768Z,102492.97
2019-03-27T18:11:45.287Z,102489.03
2019-03-27T18:14:12.872Z,102490.78
2019-03-27T18:16:40.322Z,102495.58
2019-03-27T18:19:07.872Z,102489.89
2019-03-27T18:21:35.324Z,102489.88
2019-03-27T18:24:02.788Z,102491.63
2019-03-27T18:26:30.234Z,102494.69
2019-03-27T18:28:57.704Z,102495.14
2019-03-27T18:31:25.162Z,102493.81
2019-03-27T18:33:52.776Z,102495.11
2019-03-27T18:36:20.241Z,102497.73
2019-03-27T18:38:47.731Z,102499.50
2019-03-27T18:41:15.197Z,102493.81
2019-03-27T18:43:44.746Z,102500.80
2019-03-27T18:46:12.205Z,102502.09
2019-03-27T18:48:39.720Z,102502.54
2019-03-27T18:51:07.194Z,102503.38
2019-03-27T18:53:34.695Z,102506.44
2019-03-27T18:56:02.158Z,102508.20
2019-03-27T18:58:29.645Z,102511.66
2019-03-27T19:00:57.112Z,102509.92
2019-03-27T19:03:24.602Z,102514.28
2019-03-27T19:05:52.059Z,102510.77
2019-03-27T19:08:19.555Z,102507.68
2019-03-27T19:10:47.047Z,102512.48
2019-03-27T19:13:14.491Z,102512.42
2019-03-27T19:15:42.006Z,102513.30
2019-03-27T19:18:09.838Z,102514.23
2019-03-27T19:20:37.300Z,102516.79
2019-03-27T19:23:04.805Z,102523.30
2019-03-27T19:25:32.544Z,102522.88
2019-03-27T19:28:00.022Z,102520.70
2019-03-27T19:30:27.486Z,102519.38
2019-03-27T19:32:54.939Z,102521.58
2019-03-27T19:35:22.420Z,102525.05
2019-03-27T19:37:49.881Z,102524.16
2019-03-27T19:40:17.354Z,102525.44
2019-03-27T19:42:44.813Z,102530.67
2019-03-27T19:45:12.557Z,102526.33
2019-03-27T19:47:40.098Z,102530.66
2019-03-27T19:50:07.950Z,102525.04
2019-03-27T19:52:35.434Z,102526.70
2019-03-27T19:55:05.662Z,102524.54
2019-03-27T19:57:33.105Z,102525.42
2019-03-27T20:00:02.968Z,102531.08
2019-03-27T20:02:30.479Z,102529.73
2019-03-27T20:04:58.017Z,102531.94
2019-03-27T20:07:35.208Z,102481.63
2019-03-27T20:09:54.966Z,102534.02
2019-03-27T20:12:22.519Z,102531.42
2019-03-27T20:14:50.034Z,102530.51
2019-03-27T20:17:17.489Z,102533.56
2019-03-27T20:19:44.983Z,102531.38
2019-03-27T20:22:12.441Z,102531.84
2019-03-27T20:24:41.157Z,102540.03
2019-03-27T20:27:08.906Z,102530.12
2019-03-27T20:29:36.457Z,102534.41
2019-03-27T20:32:03.904Z,102539.61
2019-03-27T20:34:31.396Z,102534.00
2019-03-27T20:36:58.862Z,102540.52
2019-03-27T20:39:26.385Z,102544.87
2019-03-27T20:41:53.831Z,102546.67
2019-03-27T20:44:21.331Z,102551.83
2019-03-27T20:46:48.790Z,102556.20
2019-03-27T20:49:16.276Z,102550.05
2019-03-27T20:51:43.767Z,102556.52
2019-03-27T20:54:11.280Z,102554.83
2019-03-27T20:56:38.795Z,102557.83
2019-03-27T20:59:06.306Z,102548.27
2019-03-27T21:01:33.762Z,102553.95
2019-03-27T21:04:01.787Z,102544.84
2019-03-27T21:06:30.088Z,102551.80
2019-03-27T21:08:57.691Z,102550.46
2019-03-27T21:11:25.192Z,102553.54
2019-03-27T21:13:52.701Z,102551.82
2019-03-27T21:16:20.243Z,102552.20
2019-03-27T21:18:47.750Z,102556.16
2019-03-27T21:21:15.215Z,102551.89
2019-03-27T21:23:42.705Z,102557.87
2019-03-27T21:26:10.169Z,102554.33
2019-03-27T21:28:37.626Z,102559.64
2019-03-27T21:31:05.119Z,102556.98
2019-03-27T21:33:32.582Z,102558.74
2019-03-27T21:36:00.105Z,102555.21
2019-03-27T21:38:27.581Z,102538.99
2019-03-27T21:40:55.068Z,102559.62
2019-03-27T21:43:22.519Z,102558.26
2019-03-27T21:45:50.035Z,102565.23
2019-03-27T21:48:17.494Z,102568.72
2019-03-27T21:50:44.993Z,102569.61
2019-03-27T21:53:12.506Z,102573.22
2019-03-27T21:55:42.926Z,102574.81
2019-03-27T21:58:09.456Z,102580.02
2019-03-27T22:00:38.779Z,102573.53
2019-03-27T22:03:06.459Z,102573.07
2019-03-27T22:05:34.039Z,102571.33
2019-03-27T22:08:01.573Z,102570.81
2019-03-27T22:10:29.037Z,102566.48
2019-03-27T22:12:56.577Z,102566.08
2019-03-27T22:15:24.161Z,102567.36
2019-03-27T22:17:51.645Z,102577.02
2019-03-27T22:20:19.127Z,102576.17
2019-03-27T22:22:46.585Z,102579.63
2019-03-27T22:25:14.076Z,102576.94
2019-03-27T22:27:41.529Z,102581.77
2019-03-27T22:30:09.657Z,102584.78
2019-03-27T22:32:37.088Z,102586.09
2019-03-27T22:35:04.989Z,102593.50
2019-03-27T22:37:32.449Z,102590.85
2019-03-27T22:40:00.178Z,102591.73
2019-03-27T22:42:27.948Z,102590.02
2019-03-27T22:44:55.801Z,102586.55
2019-03-27T22:47:23.548Z,102586.12
2019-03-27T22:49:51.157Z,102585.19
2019-03-27T22:52:18.602Z,102555.41
2019-03-27T22:54:46.126Z,102586.47
2019-03-27T22:57:13.584Z,102584.26
2019-03-27T22:59:41.079Z,102589.55
2019-03-27T23:02:08.674Z,102584.73
2019-03-27T23:04:36.164Z,102589.92
2019-03-27T23:07:03.644Z,102586.88
2019-03-27T23:09:31.148Z,102592.08
2019-03-27T23:11:58.615Z,102589.89
2019-03-27T23:14:26.122Z,102595.53
2019-03-27T23:16:53.580Z,102591.58
2019-03-27T23:19:21.116Z,102595.09
2019-03-27T23:21:48.735Z,102592.52
2019-03-27T23:24:16.179Z,102590.73
2019-03-27T23:26:43.661Z,102591.14
2019-03-27T23:29:11.114Z,102590.27
2019-03-27T23:31:38.705Z,102594.19
2019-03-27T23:34:06.150Z,102589.40
2019-03-27T23:36:33.627Z,102588.97
2019-03-27T23:39:01.111Z,102588.09
2019-03-27T23:41:28.613Z,102588.94
2019-03-27T23:43:56.070Z,102589.43
2019-03-27T23:46:23.570Z,102589.49
2019-03-27T23:48:51.100Z,102584.14
2019-03-27T23:51:18.573Z,102585.80
2019-03-27T23:53:46.043Z,102590.24
2019-03-27T23:56:16.919Z,102588.97
2019-03-27T23:58:42.897Z,102587.53
